Time;durP1;ratioP1;P1;durP2;ratioP2;P2;SDS_P1;SDS_P2;PMS_P1;PMS_P2;Temp;Humidity;BMP_temperature;BMP_pressure;BME280_temperature;BME280_humidity;BME280_pressure;Samples;Min_cycle;Max_cycle;Signal;HPM_P1;HPM_P2
2023/06/23 00:01:22;;;;;;;13.40;4.80;;;;;;;15.60;85.54;99908.14;109027;1257;58399;-65
2023/06/23 00:04:08;;;;;;;11.00;5.60;;;;;;;15.55;85.39;99895.48;108915;1257;59257;-65
2023/06/23 00:06:55;;;;;;;13.00;6.00;;;;;;;15.52;85.73;99898.58;109042;1260;71952;-64
2023/06/23 00:09:43;;;;;;;17.60;5.40;;;;;;;15.48;86.05;99899.46;108960;1257;67884;-65
2023/06/23 00:12:29;;;;;;;10.50;5.20;;;;;;;15.46;85.87;99899.34;108940;1257;72788;-66
2023/06/23 00:15:15;;;;;;;12.30;5.80;;;;;;;15.44;86.56;99904.76;109216;1253;58178;-65
2023/06/23 00:18:02;;;;;;;11.30;5.10;;;;;;;15.41;86.53;99906.46;109207;1253;58491;-63
2023/06/23 00:20:49;;;;;;;10.90;5.20;;;;;;;15.41;86.60;99911.50;109257;1253;70803;-66
2023/06/23 00:23:36;;;;;;;11.70;5.70;;;;;;;15.38;86.53;99914.95;109273;1253;67763;-65
2023/06/23 00:26:23;;;;;;;13.70;5.90;;;;;;;15.33;86.84;99914.95;109253;1253;73508;-64
2023/06/23 00:29:10;;;;;;;12.30;5.50;;;;;;;15.31;87.25;99916.17;109263;1253;58099;-64
2023/06/23 00:31:58;;;;;;;10.90;5.70;;;;;;;15.31;87.41;99918.71;109361;1253;59108;-67
2023/06/23 00:34:45;;;;;;;12.70;5.30;;;;;;;15.31;87.67;99921.44;109572;1253;71214;-65
2023/06/23 00:37:31;;;;;;;11.80;5.00;;;;;;;15.31;87.93;99923.05;109231;1253;66112;-65
2023/06/23 00:40:22;;;;;;;11.60;5.30;;;;;;;15.28;88.31;99922.07;109257;1253;71690;-65
2023/06/23 00:43:09;;;;;;;12.20;5.70;;;;;;;15.24;88.72;99921.54;109264;1253;58295;-65
2023/06/23 00:45:56;;;;;;;12.40;5.40;;;;;;;15.21;88.87;99921.33;109318;1253;58907;-64
2023/06/23 00:48:43;;;;;;;12.10;5.20;;;;;;;15.19;88.69;99916.76;109262;1253;72112;-66
2023/06/23 00:51:30;;;;;;;14.70;6.20;;;;;;;15.18;89.03;99916.65;109242;1253;67631;-65
2023/06/23 00:54:17;;;;;;;12.90;5.30;;;;;;;15.16;89.07;99916.85;109323;1253;72804;-65
2023/06/23 00:57:05;;;;;;;12.70;5.70;;;;;;;15.15;89.11;99915.12;109218;1253;58338;-64
2023/06/23 00:59:52;;;;;;;11.90;5.50;;;;;;;15.17;89.12;99916.17;109247;1253;60069;-65
2023/06/23 01:02:39;;;;;;;12.90;6.20;;;;;;;15.20;89.35;99911.27;108535;1253;1002384;-65
2023/06/23 01:05:35;;;;;;;13.10;5.60;;;;;;;15.21;88.87;99908.30;109272;1253;68131;-66
2023/06/23 01:08:44;;;;;;;9.80;4.80;;;;;;;15.23;88.85;99897.54;109546;1253;72631;-66
2023/06/23 01:11:42;;;;;;;11.80;4.90;;;;;;;15.27;88.67;99899.17;109332;1253;57961;-67
2023/06/23 01:14:56;;;;;;;12.50;5.30;;;;;;;15.25;88.48;99902.17;109461;1253;60057;-65
2023/06/23 01:17:57;;;;;;;12.70;5.80;;;;;;;15.21;89.12;99900.93;108881;1262;72162;-67
2023/06/23 01:20:46;;;;;;;12.20;6.10;;;;;;;15.16;89.27;99893.42;108831;1261;67831;-63
2023/06/23 01:24:02;;;;;;;11.30;5.60;;;;;;;15.12;89.33;99884.52;108874;1261;72733;-65
2023/06/23 01:27:38;;;;;;;11.50;5.60;;;;;;;15.14;89.49;99877.68;108868;1261;58344;-63
2023/06/23 01:30:29;;;;;;;12.30;5.60;;;;;;;15.18;89.31;99872.02;108887;1261;58783;-64
2023/06/23 01:33:26;;;;;;;9.10;4.80;;;;;;;15.18;89.18;99866.11;108874;1261;72357;-65
2023/06/23 01:36:19;;;;;;;11.50;5.60;;;;;;;15.19;89.04;99868.27;108898;1261;68697;-65
2023/06/23 01:39:08;;;;;;;12.00;5.40;;;;;;;15.19;89.10;99866.04;108838;1261;70556;-65
2023/06/23 01:42:04;;;;;;;11.10;5.60;;;;;;;15.19;88.83;99866.85;108853;1261;57007;-63
2023/06/23 01:44:56;;;;;;;10.80;5.00;;;;;;;15.19;88.46;99868.98;108817;1262;61261;-67
2023/06/23 01:47:49;;;;;;;13.40;5.50;;;;;;;15.16;88.53;99867.48;108845;1261;72189;-64
2023/06/23 01:50:39;;;;;;;12.10;5.00;;;;;;;15.14;88.50;99861.66;108821;1261;66312;-67
2023/06/23 01:53:28;;;;;;;14.00;5.40;;;;;;;15.11;88.31;99862.09;108902;1262;72585;-65
2023/06/23 01:56:17;;;;;;;12.60;5.00;;;;;;;15.10;88.47;99862.73;109333;1254;59410;-64
2023/06/23 01:59:05;;;;;;;10.50;4.70;;;;;;;15.07;88.16;99859.44;109211;1253;58804;-65
2023/06/23 02:01:53;;;;;;;10.20;4.80;;;;;;;15.08;88.14;99862.27;109252;1253;70831;-63
2023/06/23 02:04:43;;;;;;;12.80;4.60;;;;;;;15.08;88.21;99866.17;109287;1253;66433;-64
2023/06/23 02:07:32;;;;;;;10.60;4.60;;;;;;;15.07;88.24;99866.09;109399;1253;72562;-65
2023/06/23 02:10:21;;;;;;;12.40;5.20;;;;;;;15.07;88.23;99863.22;109250;1253;58064;-65
2023/06/23 02:13:11;;;;;;;12.70;4.90;;;;;;;15.05;87.96;99858.60;109250;1253;60399;-64
2023/06/23 02:15:58;;;;;;;12.60;4.60;;;;;;;15.05;88.36;99858.46;109079;1256;71129;-62
2023/06/23 02:18:45;;;;;;;10.00;5.30;;;;;;;15.06;88.04;99861.50;109144;1256;66392;-65
2023/06/23 02:21:34;;;;;;;10.60;5.00;;;;;;;15.05;88.05;99856.64;109080;1256;72653;-67
2023/06/23 02:24:21;;;;;;;9.80;4.60;;;;;;;15.03;87.98;99861.67;109196;1256;57851;-66
2023/06/23 02:27:08;;;;;;;10.30;4.50;;;;;;;15.04;87.77;99868.95;109078;1257;60715;-64
2023/06/23 02:29:58;;;;;;;10.70;4.70;;;;;;;15.05;87.72;99869.53;109090;1256;71905;-63
2023/06/23 02:32:47;;;;;;;10.30;4.50;;;;;;;15.09;87.74;99868.59;109104;1256;67763;-65
2023/06/23 02:35:33;;;;;;;9.60;4.60;;;;;;;15.13;87.51;99870.86;109136;1256;72461;-65
2023/06/23 02:38:24;;;;;;;10.00;4.80;;;;;;;15.13;87.28;99874.92;109145;1256;56898;-65
2023/06/23 02:41:12;;;;;;;11.00;4.70;;;;;;;15.13;86.96;99875.30;109147;1256;58764;-66
2023/06/23 02:44:06;;;;;;;10.80;4.50;;;;;;;15.12;87.02;99875.36;109124;1256;73042;-65
2023/06/23 02:46:57;;;;;;;9.40;4.70;;;;;;;15.13;86.85;99872.61;109218;1253;67838;-64
2023/06/23 02:49:46;;;;;;;9.30;4.50;;;;;;;15.14;86.94;99875.41;109366;1253;71405;-63
2023/06/23 02:52:34;;;;;;;9.10;4.00;;;;;;;15.15;86.77;99875.45;109370;1253;58095;-62
2023/06/23 02:55:23;;;;;;;9.10;3.60;;;;;;;15.17;86.62;99872.09;109207;1253;59114;-64
2023/06/23 02:58:17;;;;;;;10.80;4.40;;;;;;;15.19;86.53;99871.72;109191;1253;70546;-65
2023/06/23 03:01:05;;;;;;;9.90;3.80;;;;;;;15.21;86.42;99869.93;109372;1253;67958;-66
2023/06/23 03:03:56;;;;;;;8.80;3.90;;;;;;;15.24;86.39;99870.64;109203;1253;71546;-64
2023/06/23 03:06:44;;;;;;;9.50;4.20;;;;;;;15.26;86.26;99864.75;109203;1260;59323;-63
2023/06/23 03:09:30;;;;;;;9.00;3.70;;;;;;;15.30;85.97;99865.19;109224;1253;58213;-65
2023/06/23 03:12:18;;;;;;;9.90;3.80;;;;;;;15.36;85.49;99861.45;109261;1253;72244;-64
2023/06/23 03:15:05;;;;;;;11.40;4.50;;;;;;;15.40;85.29;99861.89;109207;1254;67863;-64
2023/06/23 03:17:58;;;;;;;9.80;4.20;;;;;;;15.46;85.07;99865.19;109251;1253;71478;-62
2023/06/23 03:20:50;;;;;;;9.40;3.70;;;;;;;15.50;84.55;99865.69;109243;1254;57906;-64
2023/06/23 03:23:39;;;;;;;11.10;4.00;;;;;;;15.54;84.34;99862.06;109348;1253;60167;-66
2023/06/23 03:26:28;;;;;;;8.80;4.00;;;;;;;15.57;84.23;99860.91;109263;1253;72176;-65
2023/06/23 03:29:18;;;;;;;11.10;4.20;;;;;;;15.60;83.86;99860.95;109173;1254;68683;-67
2023/06/23 03:32:09;;;;;;;10.00;4.50;;;;;;;15.67;83.88;99854.34;109227;1254;72635;-65
2023/06/23 03:35:06;;;;;;;9.70;3.90;;;;;;;15.78;83.80;99841.59;109153;1257;58033;-65
2023/06/23 03:37:59;;;;;;;10.20;4.20;;;;;;;15.93;82.97;99829.53;109453;1253;58665;-65
2023/06/23 03:41:00;;;;;;;10.70;4.40;;;;;;;16.04;82.42;99823.32;109250;1254;72258;-65
2023/06/23 03:44:13;;;;;;;9.70;4.20;;;;;;;16.17;82.02;99813.94;109453;1253;67678;-65
2023/06/23 03:47:05;;;;;;;10.10;4.20;;;;;;;16.32;81.59;99812.79;109281;1253;71425;-66
2023/06/23 03:49:59;;;;;;;10.40;4.00;;;;;;;16.43;80.71;99810.73;109414;1253;57997;-66
2023/06/23 03:52:48;;;;;;;8.80;3.80;;;;;;;16.51;80.20;99815.36;109320;1254;60241;-63
2023/06/23 03:55:38;;;;;;;11.50;4.30;;;;;;;16.58;79.68;99818.00;109277;1253;72147;-64
2023/06/23 03:58:26;;;;;;;10.20;3.50;;;;;;;16.67;79.39;99822.65;109262;1253;67995;-63
2023/06/23 04:01:15;;;;;;;11.00;4.50;;;;;;;16.75;79.03;99818.60;109266;1253;71106;-64
2023/06/23 04:04:04;;;;;;;9.10;3.70;;;;;;;16.80;78.44;99816.77;109234;1253;56921;-66
2023/06/23 04:06:54;;;;;;;9.50;3.70;;;;;;;16.84;78.47;99815.47;109192;1255;59998;-66
2023/06/23 04:09:48;;;;;;;9.40;4.40;;;;;;;16.88;78.53;99818.28;109546;1253;72079;-66
2023/06/23 04:12:35;;;;;;;9.70;3.70;;;;;;;16.93;78.47;99813.61;109339;1253;66701;-67
2023/06/23 04:15:25;;;;;;;10.70;4.00;;;;;;;17.00;78.12;99815.70;109336;1253;71292;-64
2023/06/23 04:18:13;;;;;;;10.50;4.10;;;;;;;17.09;77.82;99811.85;109273;1253;57762;-66
2023/06/23 04:21:02;;;;;;;9.80;3.90;;;;;;;17.20;77.23;99808.59;109260;1253;58833;-66
2023/06/23 04:23:52;;;;;;;8.10;3.70;;;;;;;17.28;76.85;99805.21;109288;1254;71990;-66
2023/06/23 04:26:42;;;;;;;10.70;3.80;;;;;;;17.35;76.37;99801.02;109171;1254;67923;-66
2023/06/23 04:29:30;;;;;;;9.60;3.70;;;;;;;17.48;75.93;99798.30;109103;1254;72773;-67
2023/06/23 04:32:17;;;;;;;13.30;4.10;;;;;;;17.62;74.90;99796.95;109307;1254;58252;-67
2023/06/23 04:35:05;;;;;;;10.50;3.80;;;;;;;17.72;74.51;99796.33;109259;1254;60190;-67
2023/06/23 04:38:02;;;;;;;11.60;4.20;;;;;;;17.84;74.36;99792.48;109237;1254;72415;-66
2023/06/23 04:41:00;;;;;;;12.10;4.50;;;;;;;17.94;72.39;99786.20;109358;1254;67773;-66
2023/06/23 04:43:52;;;;;;;10.00;3.90;;;;;;;17.97;72.20;99781.55;109483;1254;71378;-66
2023/06/23 04:46:41;;;;;;;12.30;3.60;;;;;;;18.05;71.65;99782.45;109306;1254;57754;-65
2023/06/23 04:49:29;;;;;;;11.60;4.00;;;;;;;18.06;70.98;99782.68;109405;1256;58777;-66
2023/06/23 04:52:18;;;;;;;12.10;3.70;;;;;;;18.09;71.26;99780.76;109311;1259;70785;-66
2023/06/23 04:55:08;;;;;;;11.20;4.00;;;;;;;18.18;71.63;99779.15;109434;1253;67350;-67
2023/06/23 04:57:59;;;;;;;10.40;4.00;;;;;;;18.32;71.32;99776.30;109309;1253;71548;-67
2023/06/23 05:00:47;;;;;;;10.20;4.20;;;;;;;18.43;71.35;99776.27;109276;1253;59349;-66
2023/06/23 05:03:36;;;;;;;12.00;4.00;;;;;;;18.50;70.74;99779.50;109260;1253;58886;-65
2023/06/23 05:06:25;;;;;;;13.10;4.60;;;;;;;18.50;70.53;99782.87;109270;1253;72025;-67
2023/06/23 05:09:15;;;;;;;12.00;3.70;;;;;;;18.50;70.47;99784.18;109244;1259;67669;-69
2023/06/23 05:12:04;;;;;;;10.90;4.00;;;;;;;18.50;69.66;99782.52;109297;1253;72357;-67
2023/06/23 05:14:52;;;;;;;11.10;3.90;;;;;;;18.54;70.01;99779.73;109283;1253;58000;-67
2023/06/23 05:17:40;;;;;;;10.60;3.70;;;;;;;18.61;70.24;99782.33;109497;1253;58982;-70
2023/06/23 05:20:29;;;;;;;10.30;4.00;;;;;;;18.68;70.48;99786.21;109275;1253;70770;-66
2023/06/23 05:23:18;;;;;;;15.10;4.30;;;;;;;18.71;70.10;99780.20;109245;1254;66373;-69
2023/06/23 05:26:07;;;;;;;9.80;3.70;;;;;;;18.73;69.63;99785.94;109336;1254;72434;-69
2023/06/23 05:28:54;;;;;;;13.80;3.90;;;;;;;18.74;68.99;99791.96;109229;1254;57879;-69
2023/06/23 05:31:43;;;;;;;12.20;3.80;;;;;;;18.74;68.72;99787.08;109348;1254;57970;-69
2023/06/23 05:34:32;;;;;;;9.50;3.70;;;;;;;18.76;68.64;99789.77;109248;1253;72063;-69
2023/06/23 05:37:20;;;;;;;10.90;3.70;;;;;;;18.83;68.54;99787.61;109330;1253;67764;-69
2023/06/23 05:40:11;;;;;;;9.00;3.70;;;;;;;18.95;68.11;99785.65;109264;1259;72703;-74
2023/06/23 05:42:58;;;;;;;12.30;4.10;;;;;;;19.07;68.20;99785.98;109144;1254;57143;-73
2023/06/23 05:45:45;;;;;;;10.50;3.50;;;;;;;19.20;67.79;99786.12;109160;1254;60231;-74
2023/06/23 05:48:48;;;;;;;9.50;3.80;;;;;;;19.26;67.30;99785.52;109178;1254;71173;-75
2023/06/23 05:51:37;;;;;;;11.80;3.70;;;;;;;19.28;67.29;99788.60;109208;1258;68633;-73
2023/06/23 05:54:27;;;;;;;10.90;3.70;;;;;;;19.23;67.32;99791.45;109160;1256;71441;-76
2023/06/23 05:57:28;;;;;;;11.60;3.80;;;;;;;19.16;67.67;99790.11;109341;1254;57993;-74
2023/06/23 06:00:19;;;;;;;9.50;3.40;;;;;;;19.10;68.09;99789.94;109168;1254;60392;-76
2023/06/23 06:03:09;;;;;;;10.50;3.90;;;;;;;19.09;68.56;99793.18;109281;1253;70842;-75
2023/06/23 06:06:00;;;;;;;11.30;3.90;;;;;;;19.03;68.39;99791.98;109211;1254;66461;-75
2023/06/23 06:08:48;;;;;;;11.30;4.50;;;;;;;19.08;68.76;99787.30;109314;1254;71164;-78
2023/06/23 06:11:37;;;;;;;10.10;4.20;;;;;;;19.22;68.71;99780.23;109223;1254;57041;-76
2023/06/23 06:14:29;;;;;;;14.90;4.30;;;;;;;19.40;68.48;99778.54;109230;1255;59044;-76
2023/06/23 06:17:16;;;;;;;13.70;4.60;;;;;;;19.55;67.86;99765.50;109218;1253;72014;-73
2023/06/23 06:20:06;;;;;;;14.10;4.40;;;;;;;19.71;66.98;99762.34;109200;1257;66479;-75
2023/06/23 06:22:55;;;;;;;10.60;4.10;;;;;;;19.89;66.20;99758.60;109260;1253;72508;-75
2023/06/23 06:26:01;;;;;;;11.30;3.60;;;;;;;20.07;63.93;99756.22;109330;1254;56894;-74
2023/06/23 06:28:53;;;;;;;14.60;4.00;;;;;;;20.24;63.84;99757.53;109156;1253;60431;-76
2023/06/23 06:31:42;;;;;;;12.70;3.70;;;;;;;20.44;63.52;99751.48;109196;1253;70998;-78
2023/06/23 06:34:31;;;;;;;11.60;4.30;;;;;;;20.53;62.81;99753.31;109205;1254;66544;-76
2023/06/23 06:37:20;;;;;;;11.60;4.20;;;;;;;20.54;61.49;99759.48;109325;1254;72486;-76
2023/06/23 06:40:08;;;;;;;10.70;3.60;;;;;;;20.51;61.50;99761.27;109307;1254;57727;-77
2023/06/23 06:42:56;;;;;;;12.80;4.00;;;;;;;20.53;61.47;99753.24;109342;1259;58865;-77
2023/06/23 06:45:46;;;;;;;15.90;3.90;;;;;;;20.57;61.56;99757.56;109174;1254;70928;-77
2023/06/23 06:48:34;;;;;;;10.40;3.50;;;;;;;20.59;61.05;99754.33;109313;1253;67926;-78
2023/06/23 06:51:22;;;;;;;8.70;3.40;;;;;;;20.48;60.48;99741.61;109184;1254;71793;-77
2023/06/23 06:54:09;;;;;;;13.80;3.80;;;;;;;20.56;60.29;99756.88;109190;1253;57817;-77
2023/06/23 06:56:58;;;;;;;9.50;3.60;;;;;;;20.57;60.31;99757.08;109300;1253;60174;-75
2023/06/23 06:59:48;;;;;;;13.00;3.90;;;;;;;20.59;60.73;99759.61;109172;1253;71966;-76
2023/06/23 07:02:38;;;;;;;14.40;4.40;;;;;;;20.68;61.02;99759.59;109269;1253;68136;-79
2023/06/23 07:05:26;;;;;;;10.20;3.70;;;;;;;20.89;60.83;99760.02;109190;1254;72589;-77
2023/06/23 07:08:12;;;;;;;14.90;4.20;;;;;;;21.07;61.05;99758.02;109162;1254;57674;-75
2023/06/23 07:11:00;;;;;;;14.50;3.90;;;;;;;21.23;60.97;99757.14;109182;1254;60087;-76
2023/06/23 07:13:47;;;;;;;12.60;4.30;;;;;;;21.42;60.49;99751.45;108839;1260;71206;-76
2023/06/23 07:16:33;;;;;;;14.30;4.70;;;;;;;21.74;59.51;99750.92;108870;1260;66805;-75
2023/06/23 07:19:20;;;;;;;14.90;4.40;;;;;;;22.01;58.31;99749.04;108869;1260;72824;-77
2023/06/23 07:22:08;;;;;;;13.10;4.10;;;;;;;22.22;57.33;99749.96;108948;1260;57316;-80
2023/06/23 07:24:55;;;;;;;12.20;4.20;;;;;;;22.36;56.78;99752.79;108917;1258;59036;-77
2023/06/23 07:27:42;;;;;;;11.60;3.70;;;;;;;22.47;56.19;99754.83;108910;1259;73130;-81
2023/06/23 07:30:28;;;;;;;12.60;4.00;;;;;;;22.61;55.51;99755.77;108964;1259;67906;-77
2023/06/23 07:33:18;;;;;;;12.10;4.00;;;;;;;22.71;54.35;99755.45;108868;1259;70769;-77
2023/06/23 07:36:05;;;;;;;14.20;4.40;;;;;;;22.76;53.65;99759.26;108852;1260;57999;-78
2023/06/23 07:38:52;;;;;;;8.20;3.00;;;;;;;22.76;52.26;99754.92;108909;1259;61050;-75
2023/06/23 07:41:38;;;;;;;11.00;3.80;;;;;;;22.68;51.58;99754.56;108985;1260;73118;-75
2023/06/23 07:44:25;;;;;;;12.00;3.40;;;;;;;22.64;51.27;99759.27;108807;1264;67265;-77
2023/06/23 07:47:12;;;;;;;10.40;3.20;;;;;;;22.58;51.96;99760.64;108933;1260;72563;-75
2023/06/23 07:50:01;;;;;;;13.30;3.50;;;;;;;22.48;53.00;99764.63;108909;1257;57415;-76
2023/06/23 07:52:54;;;;;;;10.80;3.20;;;;;;;22.31;53.41;99770.36;108951;1259;58946;-77
2023/06/23 07:55:41;;;;;;;10.00;3.80;;;;;;;22.10;54.03;99776.85;108903;1258;73577;-75
2023/06/23 07:58:28;;;;;;;12.30;3.20;;;;;;;21.91;54.08;99783.38;108873;1257;66577;-76
2023/06/23 08:01:15;;;;;;;14.60;3.60;;;;;;;21.74;54.56;99792.04;108913;1257;72527;-75
2023/06/23 08:04:02;;;;;;;11.40;3.20;;;;;;;21.55;53.82;99806.77;108949;1257;57912;-76
2023/06/23 08:06:49;;;;;;;11.30;3.00;;;;;;;21.37;54.29;99813.04;108921;1257;60108;-75
2023/06/23 08:09:36;;;;;;;11.20;3.30;;;;;;;21.24;54.50;99822.62;108806;1259;71901;-75
2023/06/23 08:12:23;;;;;;;9.70;3.20;;;;;;;21.15;54.96;99830.84;108731;1260;67974;-74
2023/06/23 08:15:10;;;;;;;12.40;3.50;;;;;;;21.06;55.71;99835.70;108718;1260;71878;-78
2023/06/23 08:17:57;;;;;;;14.40;3.90;;;;;;;20.97;54.79;99840.83;108745;1260;58034;-76
2023/06/23 08:20:43;;;;;;;11.30;3.40;;;;;;;20.89;55.19;99851.15;108967;1259;59065;-75
2023/06/23 08:23:30;;;;;;;10.80;3.30;;;;;;;20.83;56.01;99856.56;108891;1260;72903;-76
2023/06/23 08:26:23;;;;;;;11.30;3.10;;;;;;;20.75;56.25;99864.14;108717;1260;204936;-76
2023/06/23 08:29:10;;;;;;;9.80;3.50;;;;;;;20.71;57.51;99867.33;108826;1259;72407;-77
2023/06/23 08:31:57;;;;;;;12.00;3.20;;;;;;;20.70;58.37;99879.54;108885;1259;57974;-78
2023/06/23 08:34:44;;;;;;;10.30;3.40;;;;;;;20.73;58.65;99882.34;108901;1259;59282;-74
2023/06/23 08:37:30;;;;;;;12.80;3.50;;;;;;;20.81;58.62;99883.63;108897;1260;71620;-74
2023/06/23 08:40:19;;;;;;;15.40;3.20;;;;;;;20.87;59.04;99889.11;108935;1258;67854;-74
2023/06/23 08:43:10;;;;;;;9.80;3.00;;;;;;;20.91;59.60;99888.07;109087;1255;71107;-77
2023/06/23 08:45:59;;;;;;;12.30;3.30;;;;;;;20.97;59.96;99889.48;109099;1256;58081;-73
2023/06/23 08:48:51;;;;;;;10.70;3.50;;;;;;;21.02;59.18;99896.05;109043;1254;58701;-75
2023/06/23 08:51:40;;;;;;;10.70;3.60;;;;;;;21.04;59.29;99895.15;109142;1254;72471;-75
2023/06/23 08:54:26;;;;;;;17.50;6.30;;;;;;;21.04;59.62;99900.23;109189;1254;67676;-78
2023/06/23 08:57:17;;;;;;;15.50;3.90;;;;;;;21.04;59.87;99903.06;109083;1254;72752;-77
2023/06/23 09:00:04;;;;;;;17.60;4.10;;;;;;;21.00;60.42;99904.30;109146;1254;57838;-76
2023/06/23 09:02:51;;;;;;;16.30;4.60;;;;;;;21.02;60.85;99901.88;108927;1258;59036;-77
2023/06/23 09:05:43;;;;;;;14.60;3.90;;;;;;;21.08;61.34;99909.06;108946;1260;73085;-77
2023/06/23 09:08:30;;;;;;;14.20;4.10;;;;;;;21.11;61.00;99909.05;108925;1260;66510;-79
2023/06/23 09:11:18;;;;;;;19.50;4.20;;;;;;;21.09;61.34;99915.61;108915;1258;72269;-76
2023/06/23 09:14:06;;;;;;;15.90;3.60;;;;;;;21.04;60.91;99913.96;108849;1260;57336;-75
2023/06/23 09:16:54;;;;;;;13.90;3.40;;;;;;;20.99;60.24;99914.13;108892;1259;58960;-76
2023/06/23 09:19:42;;;;;;;10.20;3.70;;;;;;;20.88;59.25;99919.95;108910;1259;72966;-76
2023/06/23 09:22:31;;;;;;;11.70;3.20;;;;;;;20.81;59.20;99925.14;108973;1259;68182;-75
2023/06/23 09:25:59;;;;;;;10.90;3.20;;;;;;;20.80;59.75;99926.42;108879;1258;72423;-74
2023/06/23 09:28:48;;;;;;;12.60;3.70;;;;;;;20.76;60.42;99931.55;108661;1263;57805;-77
2023/06/23 09:31:39;;;;;;;12.10;3.30;;;;;;;20.69;60.77;99932.14;108606;1263;60104;-77
2023/06/23 09:34:30;;;;;;;14.90;3.30;;;;;;;20.63;61.52;99937.54;108792;1260;73423;-77
2023/06/23 09:37:17;;;;;;;11.70;3.40;;;;;;;20.59;62.44;99936.86;108807;1260;68145;-76
2023/06/23 09:40:06;;;;;;;10.00;3.30;;;;;;;20.51;63.05;99939.16;108914;1259;72455;-76
2023/06/23 09:43:00;;;;;;;10.40;3.30;;;;;;;20.43;63.39;99942.10;108933;1260;57367;-79
2023/06/23 09:45:46;;;;;;;9.10;2.80;;;;;;;20.35;64.55;99941.20;108914;1260;60057;-74
2023/06/23 09:48:33;;;;;;;9.30;2.90;;;;;;;20.25;63.27;99936.66;108911;1259;73165;-76
2023/06/23 09:51:20;;;;;;;9.70;3.40;;;;;;;20.12;63.85;99929.77;108782;1263;67303;-74
2023/06/23 09:54:07;;;;;;;8.50;3.40;;;;;;;19.96;64.48;99928.38;108667;1262;71520;-75
2023/06/23 09:57:04;;;;;;;9.70;3.40;;;;;;;19.86;65.00;99929.95;108607;1262;57458;-77
2023/06/23 09:59:53;;;;;;;9.80;3.30;;;;;;;19.81;65.40;99931.41;108780;1258;60314;-75
2023/06/23 10:02:40;;;;;;;9.00;3.50;;;;;;;19.77;65.47;99931.22;109005;1257;70619;-76
2023/06/23 10:05:37;;;;;;;10.20;3.50;;;;;;;19.71;64.78;99932.89;108974;1260;68094;-78
2023/06/23 10:08:25;;;;;;;9.30;3.50;;;;;;;19.64;63.79;99930.73;109007;1257;71131;-74
2023/06/23 10:11:11;;;;;;;9.00;3.60;;;;;;;19.74;65.33;99923.76;108961;1257;57315;-72
2023/06/23 10:14:05;;;;;;;11.20;4.20;;;;;;;19.89;64.28;99924.77;108953;1257;60701;-76
2023/06/23 10:16:57;;;;;;;9.80;3.30;;;;;;;20.04;62.88;99924.78;108976;1257;73327;-77
2023/06/23 10:19:46;;;;;;;9.90;3.70;;;;;;;20.19;62.44;99918.65;109007;1257;66645;-78
2023/06/23 10:22:36;;;;;;;10.20;3.00;;;;;;;20.41;61.14;99911.43;109096;1254;71264;-75
2023/06/23 10:25:24;;;;;;;8.80;3.00;;;;;;;20.56;60.00;99911.65;109203;1253;57317;-78
2023/06/23 10:28:13;;;;;;;7.80;3.10;;;;;;;20.66;58.78;99910.96;109299;1253;58849;-75
2023/06/23 10:31:02;;;;;;;8.70;3.00;;;;;;;20.71;58.14;99913.27;109237;1253;73617;-75
2023/06/23 10:33:51;;;;;;;7.90;2.80;;;;;;;20.76;57.96;99919.51;109300;1253;66763;-78
2023/06/23 10:36:41;;;;;;;8.50;2.80;;;;;;;20.79;57.68;99924.17;109131;1253;72718;-75
2023/06/23 10:39:33;;;;;;;10.50;2.80;;;;;;;20.81;56.88;99926.67;109230;1253;57783;-76
2023/06/23 10:42:23;;;;;;;7.30;2.50;;;;;;;20.83;57.30;99931.09;109306;1253;60168;-78
2023/06/23 10:45:10;;;;;;;7.60;2.80;;;;;;;20.79;57.87;99935.05;109450;1253;73632;-78
2023/06/23 10:47:58;;;;;;;7.90;3.20;;;;;;;20.77;58.54;99932.97;109293;1253;66751;-79
2023/06/23 10:50:46;;;;;;;8.40;3.50;;;;;;;20.79;58.55;99934.68;109269;1253;71752;-76
2023/06/23 10:53:36;;;;;;;8.00;2.80;;;;;;;20.69;58.18;99934.23;109130;1253;57702;-75
2023/06/23 10:56:44;;;;;;;7.40;2.70;;;;;;;20.68;57.76;99932.04;109189;1253;60289;-76
2023/06/23 10:59:31;;;;;;;7.20;2.70;;;;;;;20.77;57.39;99933.14;109299;1253;73380;-70
2023/06/23 11:02:20;;;;;;;7.30;2.80;;;;;;;20.87;57.09;99931.70;109276;1253;65520;-69
2023/06/23 11:05:16;;;;;;;7.60;2.90;;;;;;;21.08;57.28;99933.95;109453;1253;72089;-68
2023/06/23 11:08:04;;;;;;;8.70;2.90;;;;;;;21.31;56.44;99931.27;109231;1253;57792;-68
2023/06/23 11:10:57;;;;;;;7.20;2.60;;;;;;;21.50;55.44;99932.20;109299;1253;58765;-69
2023/06/23 11:13:50;;;;;;;7.00;2.70;;;;;;;21.66;54.62;99929.13;109440;1254;71598;-69
2023/06/23 11:16:39;;;;;;;9.30;2.80;;;;;;;21.89;53.68;99927.14;109279;1253;66840;-68
2023/06/23 11:19:28;;;;;;;7.50;3.10;;;;;;;22.13;53.04;99926.22;109199;1253;72554;-69
2023/06/23 11:22:21;;;;;;;9.50;3.10;;;;;;;22.50;52.83;99926.71;109170;1253;58011;-70
2023/06/23 11:25:08;;;;;;;7.30;3.00;;;;;;;22.78;50.88;99921.55;109203;1253;60596;-69
2023/06/23 11:28:38;;;;;;;7.60;2.80;;;;;;;22.86;50.72;99917.77;109511;1253;72916;-68
2023/06/23 11:31:27;;;;;;;9.00;2.50;;;;;;;22.75;48.79;99914.52;109503;1253;65396;-70
2023/06/23 11:34:13;;;;;;;6.80;2.40;;;;;;;22.72;48.90;99919.10;109273;1253;72596;-69
2023/06/23 11:37:00;;;;;;;9.10;3.20;;;;;;;22.73;49.17;99917.48;109387;1253;57715;-66
2023/06/23 11:39:48;;;;;;;9.40;2.80;;;;;;;22.73;48.74;99921.27;109285;1253;61378;-67
2023/06/23 11:42:36;;;;;;;6.50;2.60;;;;;;;22.67;49.21;99922.42;109406;1253;72990;-67
2023/06/23 11:45:22;;;;;;;8.00;2.90;;;;;;;22.73;49.52;99924.56;109467;1253;66907;-69
2023/06/23 11:48:10;;;;;;;8.40;2.60;;;;;;;22.76;48.84;99924.79;109367;1253;72529;-67
2023/06/23 11:51:00;;;;;;;6.90;2.50;;;;;;;22.72;48.48;99918.52;109215;1253;57375;-67
2023/06/23 11:53:50;;;;;;;9.30;2.70;;;;;;;22.64;48.28;99916.58;109544;1253;60133;-70
2023/06/23 11:56:41;;;;;;;10.10;2.80;;;;;;;22.60;48.71;99917.96;109377;1253;73095;-67
2023/06/23 11:59:34;;;;;;;9.20;3.00;;;;;;;22.62;49.15;99919.52;109200;1253;67664;-70
2023/06/23 12:02:26;;;;;;;8.60;2.80;;;;;;;22.65;49.47;99918.61;109357;1253;72429;-69
2023/06/23 12:05:13;;;;;;;8.70;2.70;;;;;;;22.68;49.63;99913.83;109377;1253;57995;-68
2023/06/23 12:07:59;;;;;;;10.10;3.00;;;;;;;22.74;49.63;99907.73;109378;1253;58869;-67
2023/06/23 12:10:47;;;;;;;8.40;2.80;;;;;;;22.81;49.33;99909.13;109257;1253;70558;-69
2023/06/23 12:13:37;;;;;;;8.80;3.00;;;;;;;22.85;48.80;99901.49;109229;1253;66526;-69
2023/06/23 12:16:23;;;;;;;8.30;2.80;;;;;;;22.91;48.84;99904.52;109418;1253;71299;-68
2023/06/23 12:19:09;;;;;;;8.10;2.70;;;;;;;22.94;48.89;99900.94;109362;1253;57269;-67
2023/06/23 12:21:56;;;;;;;8.00;3.10;;;;;;;23.03;49.05;99888.60;109520;1253;59041;-67
2023/06/23 12:24:44;;;;;;;8.70;2.80;;;;;;;23.15;49.04;99889.78;109198;1253;73085;-69
2023/06/23 12:27:31;;;;;;;8.80;3.10;;;;;;;23.23;48.91;99886.84;109299;1253;67252;-66
2023/06/23 12:30:19;;;;;;;9.30;3.10;;;;;;;23.34;49.44;99887.71;109222;1253;72433;-69
2023/06/23 12:33:18;;;;;;;8.20;3.10;;;;;;;23.51;48.78;99886.73;109310;1253;57353;-69
2023/06/23 12:36:09;;;;;;;7.60;2.70;;;;;;;23.68;48.55;99887.73;109290;1253;59092;-70
2023/06/23 12:38:57;;;;;;;8.40;3.00;;;;;;;23.79;48.25;99883.96;109245;1253;73207;-71
2023/06/23 12:41:48;;;;;;;8.80;2.90;;;;;;;23.87;48.01;99887.52;109182;1253;66284;-71
2023/06/23 12:44:36;;;;;;;7.40;3.00;;;;;;;23.89;47.78;99888.04;109287;1253;71477;-71
2023/06/23 12:47:24;;;;;;;8.50;2.80;;;;;;;23.71;47.65;99881.81;109182;1253;57962;-71
2023/06/23 12:50:13;;;;;;;9.40;2.90;;;;;;;23.62;48.25;99882.67;109417;1253;60140;-71
2023/06/23 12:53:14;;;;;;;8.90;3.30;;;;;;;23.70;48.71;99878.58;109439;1253;72445;-71
2023/06/23 12:56:02;;;;;;;10.70;2.90;;;;;;;23.77;47.80;99885.30;109276;1253;67726;-70
2023/06/23 12:58:49;;;;;;;11.50;3.10;;;;;;;23.85;48.17;99881.95;109276;1253;71309;-71
2023/06/23 13:01:36;;;;;;;10.50;3.10;;;;;;;23.93;47.70;99884.65;109218;1254;57270;-68
2023/06/23 13:04:23;;;;;;;10.00;2.80;;;;;;;24.03;47.96;99880.90;109259;1254;59507;-68